N66M KSAN-KDAG
Flight info
| Callsign | N66M |
|---|---|
| Flight time | 0h 36m |
| Altitude | 22000 |
| Route | BRDR7 JLI PSP V386 SOGGI |
| Aircraft | E55P/L-VGDW/C |
Departure
| Time | 2026-04-26 02:12 |
|---|---|
| Airport | San Diego International Airport (KSAN) |
Arrival
| Time | 2026-04-26 02:48 |
|---|---|
| Airport | Barstow Daggett Airport (KDAG) |
| Time | Latitude | Longitude | Altitude | Speed | Heading |
|---|---|---|---|---|---|
| 2026-04-26 01:34 | 32.73376 | -117.17982 | 22 ft | 0 kts | 160° |
| 2026-04-26 02:06 | 32.73371 | -117.17979 | 21 ft | 2 kts | 153° |
| 2026-04-26 02:06 | 32.73344 | -117.17962 | 21 ft | 6 kts | 164° |
| 2026-04-26 02:07 | 32.73289 | -117.17973 | 21 ft | 9 kts | 197° |
| 2026-04-26 02:07 | 32.73228 | -117.17963 | 21 ft | 10 kts | 116° |
| 2026-04-26 02:07 | 32.73205 | -117.17869 | 21 ft | 13 kts | 105° |
| 2026-04-26 02:07 | 32.73176 | -117.17753 | 21 ft | 15 kts | 107° |
| 2026-04-26 02:08 | 32.73146 | -117.17628 | 21 ft | 15 kts | 107° |
| 2026-04-26 02:08 | 32.73109 | -117.17567 | 21 ft | 6 kts | 145° |
| 2026-04-26 02:08 | 32.73101 | -117.17560 | 21 ft | 0 kts | 146° |
| 2026-04-26 02:09 | 32.73100 | -117.17559 | 21 ft | 0 kts | 146° |
| 2026-04-26 02:09 | 32.73085 | -117.17548 | 21 ft | 4 kts | 147° |
| 2026-04-26 02:09 | 32.73046 | -117.17532 | 21 ft | 7 kts | 187° |
| 2026-04-26 02:10 | 32.73023 | -117.17591 | 21 ft | 10 kts | 284° |
| 2026-04-26 02:10 | 32.73027 | -117.17609 | 21 ft | 0 kts | 285° |
| 2026-04-26 02:11 | 32.73029 | -117.17619 | 21 ft | 5 kts | 286° |
| 2026-04-26 02:11 | 32.73077 | -117.17812 | 21 ft | 57 kts | 285° |
| 2026-04-26 02:12 | 32.73254 | -117.18549 | 21 ft | 123 kts | 286° |
| 2026-04-26 02:12 | 32.73523 | -117.19659 | 247 ft | 155 kts | 286° |
| 2026-04-26 02:12 | 32.73873 | -117.20906 | 957 ft | 163 kts | 290° |
| 2026-04-26 02:12 | 32.74251 | -117.22184 | 1681 ft | 172 kts | 289° |
| 2026-04-26 02:13 | 32.74639 | -117.23537 | 2459 ft | 181 kts | 289° |
| 2026-04-26 02:13 | 32.75055 | -117.24974 | 3251 ft | 191 kts | 289° |
| 2026-04-26 02:13 | 32.75494 | -117.26497 | 4043 ft | 202 kts | 283° |
| 2026-04-26 02:13 | 32.75313 | -117.28115 | 4837 ft | 212 kts | 239° |
| 2026-04-26 02:14 | 32.74147 | -117.29147 | 5645 ft | 224 kts | 197° |
| 2026-04-26 02:14 | 32.72573 | -117.28978 | 6468 ft | 236 kts | 162° |
| 2026-04-26 02:14 | 32.71046 | -117.28249 | 7244 ft | 247 kts | 161° |
| 2026-04-26 02:14 | 32.69418 | -117.27470 | 8022 ft | 261 kts | 161° |
| 2026-04-26 02:15 | 32.67746 | -117.26530 | 8779 ft | 277 kts | 146° |
| 2026-04-26 02:15 | 32.66596 | -117.24644 | 9564 ft | 295 kts | 110° |
| 2026-04-26 02:15 | 32.66477 | -117.22212 | 10331 ft | 310 kts | 78° |
| 2026-04-26 02:15 | 32.67304 | -117.19793 | 11120 ft | 326 kts | 66° |
| 2026-04-26 02:16 | 32.68464 | -117.17432 | 11849 ft | 342 kts | 49° |
| 2026-04-26 02:16 | 32.70062 | -117.15288 | 12623 ft | 354 kts | 48° |
| 2026-04-26 02:16 | 32.71733 | -117.13142 | 13366 ft | 365 kts | 47° |
| 2026-04-26 02:16 | 32.73501 | -117.10873 | 14128 ft | 376 kts | 47° |
| 2026-04-26 02:17 | 32.75272 | -117.08604 | 14831 ft | 383 kts | 47° |
| 2026-04-26 02:17 | 32.77138 | -117.06213 | 14995 ft | 398 kts | 47° |
| 2026-04-26 02:17 | 32.79027 | -117.03791 | 15027 ft | 411 kts | 47° |
| 2026-04-26 02:17 | 32.80996 | -117.01265 | 15146 ft | 420 kts | 46° |
| 2026-04-26 02:18 | 32.82996 | -116.98696 | 15688 ft | 428 kts | 46° |
| 2026-04-26 02:18 | 32.85054 | -116.96054 | 16272 ft | 439 kts | 46° |
| 2026-04-26 02:18 | 32.87138 | -116.93374 | 16940 ft | 446 kts | 46° |
| 2026-04-26 02:18 | 32.89246 | -116.90662 | 17610 ft | 452 kts | 46° |
| 2026-04-26 02:19 | 32.91407 | -116.87879 | 18280 ft | 456 kts | 46° |
| 2026-04-26 02:19 | 32.93537 | -116.85134 | 18993 ft | 460 kts | 46° |
| 2026-04-26 02:19 | 32.95722 | -116.82316 | 19717 ft | 463 kts | 46° |
| 2026-04-26 02:19 | 32.97911 | -116.79491 | 20334 ft | 468 kts | 46° |
| 2026-04-26 02:20 | 33.00112 | -116.76648 | 20946 ft | 473 kts | 46° |
| 2026-04-26 02:20 | 33.02370 | -116.73730 | 21550 ft | 478 kts | 46° |
| 2026-04-26 02:20 | 33.04629 | -116.70811 | 22145 ft | 481 kts | 46° |
| 2026-04-26 02:20 | 33.06894 | -116.67879 | 22736 ft | 484 kts | 46° |
| 2026-04-26 02:21 | 33.09174 | -116.64925 | 23017 ft | 491 kts | 46° |
| 2026-04-26 02:21 | 33.11537 | -116.61912 | 23056 ft | 497 kts | 42° |
| 2026-04-26 02:21 | 33.14319 | -116.59634 | 23055 ft | 489 kts | 20° |
| 2026-04-26 02:21 | 33.17549 | -116.58534 | 23029 ft | 477 kts | 0° |
| 2026-04-26 02:22 | 33.20804 | -116.58621 | 23020 ft | 467 kts | 348° |
| 2026-04-26 02:22 | 33.24116 | -116.58775 | 22932 ft | 473 kts | 351° |
| 2026-04-26 02:22 | 33.27383 | -116.58895 | 22800 ft | 473 kts | 352° |
| 2026-04-26 02:22 | 33.30670 | -116.58978 | 22687 ft | 472 kts | 352° |
| 2026-04-26 02:23 | 33.33987 | -116.59055 | 22573 ft | 472 kts | 352° |
| 2026-04-26 02:23 | 33.37239 | -116.59132 | 22420 ft | 470 kts | 352° |
| 2026-04-26 02:23 | 33.40537 | -116.59207 | 22384 ft | 466 kts | 352° |
| 2026-04-26 02:23 | 33.43740 | -116.59283 | 22384 ft | 466 kts | 352° |
| 2026-04-26 02:24 | 33.46993 | -116.59359 | 22387 ft | 465 kts | 352° |
| 2026-04-26 02:24 | 33.50258 | -116.59436 | 22409 ft | 466 kts | 352° |
| 2026-04-26 02:24 | 33.53463 | -116.59511 | 22420 ft | 466 kts | 352° |
| 2026-04-26 02:24 | 33.56704 | -116.59586 | 22410 ft | 466 kts | 352° |
| 2026-04-26 02:25 | 33.59962 | -116.59662 | 22263 ft | 463 kts | 352° |
| 2026-04-26 02:25 | 33.63178 | -116.59737 | 22122 ft | 461 kts | 352° |
| 2026-04-26 02:25 | 33.66359 | -116.59811 | 21981 ft | 458 kts | 352° |
| 2026-04-26 02:25 | 33.69558 | -116.59886 | 21838 ft | 455 kts | 352° |
| 2026-04-26 02:26 | 33.72719 | -116.59960 | 21691 ft | 455 kts | 352° |
| 2026-04-26 02:26 | 33.75906 | -116.60036 | 21469 ft | 456 kts | 353° |
| 2026-04-26 02:26 | 33.79033 | -116.60110 | 21246 ft | 454 kts | 353° |
| 2026-04-26 02:26 | 33.82194 | -116.60184 | 21019 ft | 452 kts | 353° |
| 2026-04-26 02:27 | 33.85342 | -116.60258 | 20792 ft | 450 kts | 353° |
| 2026-04-26 02:27 | 33.88463 | -116.60331 | 20562 ft | 448 kts | 353° |
| 2026-04-26 02:27 | 33.91595 | -116.60405 | 20482 ft | 447 kts | 353° |
| 2026-04-26 02:27 | 33.94709 | -116.60479 | 20466 ft | 448 kts | 353° |
| 2026-04-26 02:28 | 33.97820 | -116.60553 | 20462 ft | 448 kts | 353° |
| 2026-04-26 02:28 | 34.00935 | -116.60626 | 20494 ft | 447 kts | 353° |
| 2026-04-26 02:28 | 34.04053 | -116.60699 | 20486 ft | 448 kts | 353° |
| 2026-04-26 02:28 | 34.07151 | -116.60773 | 20470 ft | 449 kts | 353° |
| 2026-04-26 02:29 | 34.10286 | -116.60847 | 20457 ft | 449 kts | 353° |
| 2026-04-26 02:29 | 34.13431 | -116.60921 | 20413 ft | 443 kts | 353° |
| 2026-04-26 02:29 | 34.16486 | -116.60993 | 20535 ft | 440 kts | 353° |
| 2026-04-26 02:29 | 34.19570 | -116.61069 | 20703 ft | 441 kts | 353° |
| 2026-04-26 02:30 | 34.22635 | -116.61142 | 20881 ft | 443 kts | 353° |
| 2026-04-26 02:30 | 34.25748 | -116.61216 | 21059 ft | 450 kts | 353° |
| 2026-04-26 02:30 | 34.28885 | -116.61289 | 21070 ft | 450 kts | 353° |
| 2026-04-26 02:30 | 34.31990 | -116.61361 | 21046 ft | 449 kts | 353° |
| 2026-04-26 02:31 | 34.35128 | -116.61436 | 21020 ft | 450 kts | 353° |
| 2026-04-26 02:31 | 34.38269 | -116.61511 | 20977 ft | 451 kts | 353° |
| 2026-04-26 02:31 | 34.41380 | -116.61586 | 20952 ft | 451 kts | 353° |
| 2026-04-26 02:31 | 34.44556 | -116.61662 | 20931 ft | 451 kts | 353° |
| 2026-04-26 02:32 | 34.47704 | -116.61737 | 20913 ft | 450 kts | 353° |
| 2026-04-26 02:32 | 34.50790 | -116.61809 | 20763 ft | 439 kts | 353° |
| 2026-04-26 02:32 | 34.53781 | -116.61878 | 20455 ft | 418 kts | 353° |
| 2026-04-26 02:32 | 34.56620 | -116.61946 | 20096 ft | 401 kts | 352° |
| 2026-04-26 02:33 | 34.59354 | -116.62012 | 19668 ft | 385 kts | 352° |
| 2026-04-26 02:33 | 34.61986 | -116.62076 | 19200 ft | 371 kts | 352° |
| 2026-04-26 02:33 | 34.64529 | -116.62138 | 18729 ft | 360 kts | 352° |
| 2026-04-26 02:33 | 34.66909 | -116.62557 | 18235 ft | 334 kts | 330° |
| 2026-04-26 02:34 | 34.68764 | -116.63954 | 18164 ft | 296 kts | 315° |
| 2026-04-26 02:34 | 34.70437 | -116.65421 | 18246 ft | 306 kts | 315° |
| 2026-04-26 02:34 | 34.72191 | -116.66981 | 18205 ft | 319 kts | 315° |
| 2026-04-26 02:34 | 34.74002 | -116.68582 | 18146 ft | 323 kts | 316° |
| 2026-04-26 02:35 | 34.75822 | -116.70192 | 18057 ft | 324 kts | 316° |
| 2026-04-26 02:35 | 34.77649 | -116.71809 | 18032 ft | 323 kts | 316° |
| 2026-04-26 02:35 | 34.79465 | -116.73378 | 18030 ft | 324 kts | 322° |
| 2026-04-26 02:35 | 34.81650 | -116.74191 | 17900 ft | 340 kts | 348° |
| 2026-04-26 02:36 | 34.84021 | -116.73759 | 17278 ft | 353 kts | 18° |
| 2026-04-26 02:36 | 34.86041 | -116.72037 | 16677 ft | 356 kts | 48° |
| 2026-04-26 02:36 | 34.87210 | -116.69470 | 16052 ft | 345 kts | 78° |
| 2026-04-26 02:36 | 34.87295 | -116.66724 | 15422 ft | 311 kts | 110° |
| 2026-04-26 02:37 | 34.86467 | -116.64451 | 14805 ft | 288 kts | 121° |
| 2026-04-26 02:37 | 34.86026 | -116.62089 | 14186 ft | 288 kts | 103° |
| 2026-04-26 02:37 | 34.85813 | -116.59712 | 13537 ft | 284 kts | 95° |
| 2026-04-26 02:37 | 34.86293 | -116.57386 | 12914 ft | 286 kts | 58° |
| 2026-04-26 02:38 | 34.87642 | -116.55688 | 12325 ft | 278 kts | 37° |
| 2026-04-26 02:38 | 34.89137 | -116.54222 | 11692 ft | 275 kts | 37° |
| 2026-04-26 02:38 | 34.90619 | -116.52766 | 11161 ft | 276 kts | 40° |
| 2026-04-26 02:38 | 34.91690 | -116.50853 | 10640 ft | 277 kts | 76° |
| 2026-04-26 02:39 | 34.91883 | -116.48552 | 10155 ft | 274 kts | 92° |
| 2026-04-26 02:39 | 34.91971 | -116.46215 | 9623 ft | 279 kts | 91° |
| 2026-04-26 02:39 | 34.92074 | -116.43869 | 9097 ft | 281 kts | 91° |
| 2026-04-26 02:39 | 34.92172 | -116.41496 | 8569 ft | 283 kts | 91° |
| 2026-04-26 02:40 | 34.92143 | -116.39115 | 8023 ft | 279 kts | 107° |
| 2026-04-26 02:40 | 34.91235 | -116.37170 | 7517 ft | 262 kts | 143° |
| 2026-04-26 02:40 | 34.89649 | -116.36281 | 7007 ft | 247 kts | 178° |
| 2026-04-26 02:40 | 34.88032 | -116.36731 | 6493 ft | 238 kts | 214° |
| 2026-04-26 02:41 | 34.86853 | -116.38100 | 6084 ft | 233 kts | 227° |
| 2026-04-26 02:41 | 34.86025 | -116.39704 | 5999 ft | 218 kts | 249° |
| 2026-04-26 02:41 | 34.85706 | -116.41482 | 5987 ft | 209 kts | 258° |
| 2026-04-26 02:41 | 34.85531 | -116.43225 | 5990 ft | 206 kts | 261° |
| 2026-04-26 02:42 | 34.85418 | -116.44945 | 5995 ft | 203 kts | 262° |
| 2026-04-26 02:42 | 34.85323 | -116.46653 | 6012 ft | 203 kts | 262° |
| 2026-04-26 02:42 | 34.85237 | -116.48353 | 6014 ft | 200 kts | 262° |
| 2026-04-26 02:42 | 34.85155 | -116.50010 | 6011 ft | 193 kts | 262° |
| 2026-04-26 02:43 | 34.85120 | -116.53233 | 5595 ft | 191 kts | 265° |
| 2026-04-26 02:43 | 34.85123 | -116.54864 | 5307 ft | 191 kts | 265° |
| 2026-04-26 02:43 | 34.85127 | -116.56476 | 5022 ft | 191 kts | 265° |
| 2026-04-26 02:44 | 34.85132 | -116.58042 | 4939 ft | 179 kts | 265° |
| 2026-04-26 02:44 | 34.85137 | -116.59493 | 4817 ft | 169 kts | 265° |
| 2026-04-26 02:44 | 34.85138 | -116.60909 | 4531 ft | 168 kts | 265° |
| 2026-04-26 02:44 | 34.85140 | -116.62327 | 4242 ft | 167 kts | 264° |
| 2026-04-26 02:45 | 34.85140 | -116.63728 | 3952 ft | 167 kts | 264° |
| 2026-04-26 02:45 | 34.85149 | -116.65134 | 3748 ft | 166 kts | 266° |
| 2026-04-26 02:45 | 34.85209 | -116.66473 | 3745 ft | 150 kts | 267° |
| 2026-04-26 02:45 | 34.85249 | -116.67729 | 3579 ft | 149 kts | 264° |
| 2026-04-26 02:46 | 34.85257 | -116.68991 | 3398 ft | 149 kts | 263° |
| 2026-04-26 02:46 | 34.85256 | -116.70233 | 3215 ft | 146 kts | 262° |
| 2026-04-26 02:46 | 34.85218 | -116.71453 | 3030 ft | 145 kts | 262° |
| 2026-04-26 02:46 | 34.85202 | -116.72684 | 2873 ft | 143 kts | 263° |
| 2026-04-26 02:47 | 34.85204 | -116.73901 | 2644 ft | 144 kts | 264° |
| 2026-04-26 02:47 | 34.85175 | -116.75111 | 2460 ft | 141 kts | 261° |
| 2026-04-26 02:47 | 34.85153 | -116.76265 | 2255 ft | 129 kts | 263° |
| 2026-04-26 02:47 | 34.85153 | -116.77274 | 2056 ft | 112 kts | 263° |
| 2026-04-26 02:48 | 34.85148 | -116.78133 | 1968 ft | 90 kts | 263° |
| 2026-04-26 02:48 | 34.85138 | -116.78805 | 1967 ft | 70 kts | 269° |
| 2026-04-26 02:48 | 34.85151 | -116.79256 | 1968 ft | 29 kts | 285° |
| 2026-04-26 02:48 | 34.85224 | -116.79381 | 1965 ft | 13 kts | 343° |
| 2026-04-26 02:49 | 34.85300 | -116.79322 | 1961 ft | 14 kts | 51° |
| 2026-04-26 02:49 | 34.85381 | -116.79205 | 1959 ft | 21 kts | 50° |
| 2026-04-26 02:49 | 34.85486 | -116.79096 | 1957 ft | 19 kts | 352° |
| 2026-04-26 02:49 | 34.85602 | -116.79047 | 1957 ft | 11 kts | 339° |
| 2026-04-26 02:50 | 34.85629 | -116.79090 | 1957 ft | 4 kts | 270° |
| 2026-04-26 02:50 | 34.85629 | -116.79095 | 1957 ft | 0 kts | 270° |